Chesapeake, VA

12:26 PM EDT on October 24, 2014 (GMT -0400)
South Greenbrier | Change Station
CLOSE
Current Station
Personal Weather Station
Location: Chesapeake, VA
Elevation: 33 ft
Nearby Weather Stations

Elev 33 ft 36.74 °N, 76.22 °W | Updated 17 seconds ago

Partly Cloudy
Partly Cloudy
62.4 °F
Feels Like 62.4 °F
N
3.0
Wind Variable Wind from NW
Gusts 13.0 mph

Today
High -- | Low -- °F
--% Chance of Precip.
Yesterday
High -- | Low -- °F
Precip. -- in
7:20 AM 6:16 PM
New Moon, 1% visible
Pressure 29.98 in
Visibility 10.0 miles
Clouds Clear
Dew Point 48 °F
Humidity 60%
Rainfall 0.00 in
Snow Depth Not available.
UV 5 out of 12
Pollen 1.90 out of 12
Ozone Good
PM2.5 Good
Flu Activity Local Activity
METAR KNFE 241556Z AUTO 34009G16KT 10SM CLR 19/07 A2997 RMK AO2 SLP151 T01940067

More Conditions Fewer Conditions

Pressure 29.98 in
Visibility 10.0 miles
Clouds Clear
Dew Point 48 °F
Humidity 60%
Rainfall 0.00 in
Snow Depth Not available.
UV 5 out of 12
Pollen 1.90 out of 12
Ozone Good
PM2.5 Good
Flu Activity Local Activity
METAR KNFE 241556Z AUTO 34009G16KT 10SM CLR 19/07 A2997 RMK AO2 SLP151 T01940067

More Conditions Fewer Conditions

10-Day Weather Forecast

Almanac

Astronomy

Oct. 24, 2014 Rise Set
Actual Time 7:20 AM EDT 6:16 PM EDT
Civil Twilight 6:54 AM EDT 6:43 PM EDT
Nautical Twilight 6:24 AM EDT 7:13 PM EDT
Astronomical Twilight 5:53 AM EDT 7:43 PM EDT
Moon 7:56 AM EDT 6:56 PM EDT
Length of Visible Light 11h 49m
Length of Day
10h 56m
Tomorrow will be 2m 10s shorter.
New Moon, 1% of the Moon is Illuminated
Today
New Moon
Oct 30
First Quarter
Nov 6
Full
Nov 14
Last Quarter
Nov 22
New

Today's Extremes

State Highs State Lows

Community

WunderPhotos

Upload Photos

1,764,603 photos uploaded!

WunderBlogs® & News

By Dr. Jeff Masters
Director of Meteorology, Weather Underground
By Kari Strenfel
Meteorologist, Weather Underground
By Christopher C. Burt
Weather Historian, Weather Underground
October 24, 2014
October 24, 2014
October 24, 2014

Nearby

Air Quality

  Air Quality AQ Index Pollutant
Yesterday Good
OZONE
Yesterday Good
PM2.5
Current Good
OZONE
Current Good
PM2.5
Friday Good
PM2.5

Snow Depth

Station Depth Elevation
No new snow has been reported.

Earthquake Activity

City Distance Mag. Time & Date
No recent earthquake activity has been reported nearby.
Minimum magnitude displayed is 2.5.

Coastal Water Temperatures

Place Temperature
Chesapeake Bay Bridge Tunnel, VA 64.9 °F
Kiptopeke, VA 64.9 °F
Money Point, VA 66.0 °F
Sewells Point, VA 63.0 °F

Nearby Weather Stations